FIMP/MRU METAR and TAF weather

Enter ICAO airport designator
Station Type Date Time Source
FIMP METAR 2023/01/29 19:00 UTC NOAA

FIMP 291900Z 34003KT 9999 SCT017 SCT050 25/24 Q1013


Station Type Date Time Source
FIMP Decoded METAR 2023/01/29 19:00 UTC NOAA

Plaisance Mauritius , Mauritius (FIMP) 20-26S 057-40E 57M
Jan 29, 2023 - 02:00 PM EST / 2023.01.29 1900 UTC
Wind: from the NNW (340 degrees) at 3 MPH (3 KT):0
Visibility: greater than 7 mile(s):0
Sky conditions: partly cloudy
Temperature: 77 F (25 C)
Dew Point: 75 F (24 C)
Relative Humidity: 94%
Pressure (altimeter): 29.91 in. Hg (1013 hPa)
ob: FIMP 291900Z 34003KT 9999 SCT017 SCT050 25/24 Q1013
cycle: 19

Station Type Date Time Source
FIMP TAF 2023/01/29 18:42 UTC NOAA

TAF COR FIMP 291710Z 2918/3100 VRB03KT 9999 SCT017
TEMPO 3000/3004 7000 -SHRA BKN016 PROB30
TEMPO 3009/3013 3000 SHRA/TSRA FEW008 FEW012CB BKN014

Example: see airport list